Time;durP1;ratioP1;P1;durP2;ratioP2;P2;SDS_P1;SDS_P2;PMS_P1;PMS_P2;Temp;Humidity;BMP_temperature;BMP_pressure;BME280_temperature;BME280_humidity;BME280_pressure;Samples;Min_cycle;Max_cycle;Signal;HPM_P1;HPM_P2
2022/07/19 00:02:21;;;;;;;;;;;;;;;23.53;34.41;100967.53;5417225;32;35690;-72
2022/07/19 00:05:23;;;;;;;;;;;;;;;23.87;34.47;100970.91;5416604;32;34904;-70
2022/07/19 00:08:25;;;;;;;;;;;;;;;23.34;36.52;100970.03;5435517;32;34834;-70
2022/07/19 00:11:27;;;;;;;;;;;;;;;23.62;35.21;100972.13;5410893;32;34984;-69
2022/07/19 00:14:29;;;;;;;;;;;;;;;23.17;37.29;100974.97;5429615;32;34627;-71
2022/07/19 00:17:31;;;;;;;;;;;;;;;23.11;36.09;100967.44;5440660;32;35284;-71
2022/07/19 00:20:32;;;;;;;;;;;;;;;23.45;35.69;100972.69;5410885;32;35360;-73
2022/07/19 00:23:34;;;;;;;;;;;;;;;22.74;37.61;100964.22;5428376;32;33253;-73
2022/07/19 00:26:36;;;;;;;;;;;;;;;23.54;34.94;100971.06;5410043;32;44719;-73
2022/07/19 00:29:38;;;;;;;;;;;;;;;22.91;36.57;100962.84;5421894;32;34834;-69
2022/07/19 00:32:40;;;;;;;;;;;;;;;23.05;36.12;100959.88;5420898;32;34291;-72
2022/07/19 00:35:42;;;;;;;;;;;;;;;22.93;36.97;100967.12;5385336;32;35928;-73
2022/07/19 00:38:44;;;;;;;;;;;;;;;23.18;35.95;100965.09;5424505;32;34436;-73
2022/07/19 00:41:46;;;;;;;;;;;;;;;23.77;34.77;100962.78;5414634;32;34810;-69
2022/07/19 00:44:48;;;;;;;;;;;;;;;24.17;33.73;100963.88;5428392;32;34402;-70
2022/07/19 00:47:50;;;;;;;;;;;;;;;23.05;36.13;100967.94;5422665;32;35378;-70
2022/07/19 00:50:52;;;;;;;;;;;;;;;23.05;36.53;100975.13;5391976;32;35653;-72
2022/07/19 00:53:54;;;;;;;;;;;;;;;23.24;36.29;100970.78;5438931;32;35221;-72
2022/07/19 00:56:56;;;;;;;;;;;;;;;23.67;35.31;100969.91;5421429;32;34682;-70
2022/07/19 00:59:58;;;;;;;;;;;;;;;23.51;35.89;100966.81;5384250;32;34722;-69
2022/07/19 01:03:00;;;;;;;;;;;;;;;23.15;36.67;100965.34;5393622;32;34843;-70
2022/07/19 01:06:02;;;;;;;;;;;;;;;23.19;36.51;100967.66;5431470;32;34867;-73
2022/07/19 01:09:04;;;;;;;;;;;;;;;22.67;37.66;100966.53;5428721;32;34902;-72
2022/07/19 01:12:06;;;;;;;;;;;;;;;23.26;36.49;100964.47;5429336;32;44624;-71
2022/07/19 01:15:20;;;;;;;;;;;;;;;23.01;37.10;100962.97;5437191;32;34829;-71
2022/07/19 01:18:21;;;;;;;;;;;;;;;22.53;37.83;100966.78;5415023;32;34868;-70
2022/07/19 01:21:24;;;;;;;;;;;;;;;22.39;37.96;100961.66;5423212;32;34227;-70
2022/07/19 01:24:26;;;;;;;;;;;;;;;23.04;36.89;100960.88;5423414;32;35694;-72
2022/07/19 01:27:28;;;;;;;;;;;;;;;23.56;35.35;100958.34;5432536;32;34888;-72
2022/07/19 01:30:30;;;;;;;;;;;;;;;23.06;35.61;100960.78;5410759;32;34865;-70
2022/07/19 01:33:32;;;;;;;;;;;;;;;23.33;35.87;100957.62;5402045;32;34283;-71
2022/07/19 01:36:34;;;;;;;;;;;;;;;23.50;34.74;100949.84;5427669;32;35671;-71
2022/07/19 01:39:36;;;;;;;;;;;;;;;23.47;34.98;100954.63;5379751;32;44745;-72
2022/07/19 01:42:38;;;;;;;;;;;;;;;23.31;35.21;100951.50;5390599;32;35456;-72
2022/07/19 01:45:40;;;;;;;;;;;;;;;22.75;35.85;100954.34;5389360;32;35316;-72
2022/07/19 01:48:41;;;;;;;;;;;;;;;22.10;37.46;100948.78;5389989;32;35368;-72
2022/07/19 01:51:43;;;;;;;;;;;;;;;21.97;37.72;100953.34;5386494;32;35766;-73
2022/07/19 01:54:45;;;;;;;;;;;;;;;22.00;37.81;100942.37;5395048;32;34701;-72
2022/07/19 01:57:48;;;;;;;;;;;;;;;21.61;38.51;100955.19;5392291;32;34987;-72
2022/07/19 02:00:50;;;;;;;;;;;;;;;22.75;35.56;100951.66;5369134;32;34770;-70
2022/07/19 02:03:52;;;;;;;;;;;;;;;22.67;35.54;100945.09;5402696;32;34225;-72
2022/07/19 02:06:54;;;;;;;;;;;;;;;22.13;37.65;100955.69;5377653;32;34130;-72
2022/07/19 02:09:57;;;;;;;;;;;;;;;22.24;37.15;100957.53;5410566;32;35951;-70
2022/07/19 02:12:58;;;;;;;;;;;;;;;22.91;35.60;100960.19;5384286;32;35598;-72
2022/07/19 02:16:00;;;;;;;;;;;;;;;23.14;35.16;100959.16;5376074;32;35321;-72
2022/07/19 02:19:03;;;;;;;;;;;;;;;23.19;34.63;100956.94;5405150;32;34567;-70
2022/07/19 02:22:04;;;;;;;;;;;;;;;23.14;34.40;100964.50;5387691;32;35247;-70
2022/07/19 02:25:07;;;;;;;;;;;;;;;22.26;36.12;100966.28;5434592;32;46295;-69
2022/07/19 02:28:09;;;;;;;;;;;;;;;21.07;38.54;100978.91;5427151;32;35268;-72
2022/07/19 02:31:11;;;;;;;;;;;;;;;22.17;36.30;100978.59;5432533;32;34655;-72
2022/07/19 02:34:13;;;;;;;;;;;;;;;21.56;38.08;100968.06;5428028;32;34759;-70
2022/07/19 02:37:15;;;;;;;;;;;;;;;21.85;36.98;100973.88;5403172;32;34719;-72
2022/07/19 02:40:17;;;;;;;;;;;;;;;21.92;36.80;100976.94;5412190;32;34710;-69
2022/07/19 02:43:19;;;;;;;;;;;;;;;21.71;37.50;100975.91;5426957;32;36690;-72
2022/07/19 02:46:21;;;;;;;;;;;;;;;22.10;36.71;100966.66;5432794;32;35490;-72
2022/07/19 02:49:23;;;;;;;;;;;;;;;22.25;36.20;100972.63;5407627;32;34857;-70
2022/07/19 02:52:25;;;;;;;;;;;;;;;22.67;35.77;100971.91;5432445;32;34861;-70
2022/07/19 02:55:27;;;;;;;;;;;;;;;22.62;35.99;100967.88;5422460;32;35257;-72
2022/07/19 02:58:29;;;;;;;;;;;;;;;22.47;36.96;100969.94;5403296;32;34432;-72
2022/07/19 03:01:31;;;;;;;;;;;;;;;21.43;39.33;100982.47;5397863;32;34730;-73
2022/07/19 03:04:33;;;;;;;;;;;;;;;20.80;41.27;100979.06;5423314;32;35218;-71
2022/07/19 03:07:35;;;;;;;;;;;;;;;20.96;40.88;100979.66;5437770;32;44768;-71
2022/07/19 03:10:37;;;;;;;;;;;;;;;20.69;41.84;100982.53;5415545;32;35441;-70
2022/07/19 03:13:39;;;;;;;;;;;;;;;21.19;40.68;100990.47;5415634;32;35865;-70
2022/07/19 03:16:41;;;;;;;;;;;;;;;20.72;41.75;100992.13;5402147;32;35354;-70
2022/07/19 03:19:43;;;;;;;;;;;;;;;21.58;40.12;100989.37;5427593;32;35410;-72
2022/07/19 03:22:45;;;;;;;;;;;;;;;21.84;39.63;100987.38;5437580;32;34785;-71
2022/07/19 03:25:47;;;;;;;;;;;;;;;20.95;41.46;100988.66;5410876;32;35003;-72
2022/07/19 03:28:49;;;;;;;;;;;;;;;20.68;42.75;100993.34;5443526;32;34879;-70
2022/07/19 03:31:51;;;;;;;;;;;;;;;20.97;42.27;100991.22;5419559;32;35505;-70
2022/07/19 03:34:53;;;;;;;;;;;;;;;21.64;40.70;100994.25;5439685;32;34899;-70
2022/07/19 03:37:54;;;;;;;;;;;;;;;21.06;41.88;101002.09;5398786;32;34883;-72
2022/07/19 03:40:56;;;;;;;;;;;;;;;20.52;43.35;101002.41;5413751;32;34200;-69
2022/07/19 03:43:58;;;;;;;;;;;;;;;21.41;41.58;101009.34;5445110;32;34593;-71
2022/07/19 03:47:00;;;;;;;;;;;;;;;20.79;42.16;101009.41;5421304;32;35626;-71
2022/07/19 03:50:03;;;;;;;;;;;;;;;20.55;42.98;101010.22;5442621;32;34212;-72
2022/07/19 03:53:05;;;;;;;;;;;;;;;21.35;41.27;101007.97;5413633;32;35691;-69
2022/07/19 03:56:07;;;;;;;;;;;;;;;21.76;39.95;101019.19;5428920;32;44993;-72
2022/07/19 03:59:09;;;;;;;;;;;;;;;21.39;40.74;101013.97;5399587;32;34787;-73
2022/07/19 04:02:11;;;;;;;;;;;;;;;21.34;41.14;101016.13;5413030;32;35704;-70
2022/07/19 04:05:13;;;;;;;;;;;;;;;21.47;40.61;101024.94;5429480;32;34692;-72
2022/07/19 04:08:15;;;;;;;;;;;;;;;20.78;41.85;101029.09;5424057;32;35477;-71
2022/07/19 04:11:17;;;;;;;;;;;;;;;21.43;40.31;101031.47;5431875;32;34840;-73
2022/07/19 04:14:18;;;;;;;;;;;;;;;21.00;40.93;101031.09;5421243;32;34961;-71
2022/07/19 04:17:21;;;;;;;;;;;;;;;20.79;41.27;101030.78;5403002;32;34609;-69
2022/07/19 04:20:22;;;;;;;;;;;;;;;21.48;39.73;101029.31;5420497;32;35355;-70
2022/07/19 04:23:24;;;;;;;;;;;;;;;21.61;39.35;101035.44;5418818;32;35052;-71
2022/07/19 04:26:26;;;;;;;;;;;;;;;20.82;40.25;101030.59;5433984;32;34224;-72
2022/07/19 04:29:28;;;;;;;;;;;;;;;21.39;38.88;101023.81;5425136;32;34315;-71
2022/07/19 04:32:31;;;;;;;;;;;;;;;21.84;37.94;101036.41;5432692;32;35812;-73
2022/07/19 04:35:33;;;;;;;;;;;;;;;21.81;38.16;101035.75;5410500;32;35570;-73
2022/07/19 04:38:35;;;;;;;;;;;;;;;21.99;37.60;101042.41;5402261;32;45056;-72
2022/07/19 04:41:37;;;;;;;;;;;;;;;22.76;35.82;101031.91;5389282;32;37392;-74
2022/07/19 04:44:39;;;;;;;;;;;;;;;23.16;35.36;101032.25;5422710;32;35055;-73
2022/07/19 04:47:41;;;;;;;;;;;;;;;24.66;32.63;101019.53;5435621;32;34126;-72
2022/07/19 04:50:43;;;;;;;;;;;;;;;25.19;31.64;101024.69;5400191;32;34449;-73
2022/07/19 04:53:45;;;;;;;;;;;;;;;25.01;31.53;101023.63;5429249;32;34586;-71
2022/07/19 04:56:47;;;;;;;;;;;;;;;24.83;31.11;101021.59;5408377;32;35716;-70
2022/07/19 04:59:49;;;;;;;;;;;;;;;24.60;31.78;101025.44;5409223;32;35383;-72
2022/07/19 05:02:53;;;;;;;;;;;;;;;26.60;28.46;101003.41;5419151;32;35025;-72
2022/07/19 05:05:55;;;;;;;;;;;;;;;27.09;27.75;101013.00;5410254;32;35592;-71
2022/07/19 05:08:57;;;;;;;;;;;;;;;26.22;28.91;101016.03;5444164;32;35547;-70
2022/07/19 05:11:59;;;;;;;;;;;;;;;26.87;27.47;101011.53;5417431;32;35119;-72
2022/07/19 05:15:01;;;;;;;;;;;;;;;26.77;27.70;101016.13;5423012;32;34367;-73
2022/07/19 05:18:02;;;;;;;;;;;;;;;27.13;27.23;101021.66;5419206;32;35323;-70
2022/07/19 05:21:04;;;;;;;;;;;;;;;27.93;25.75;101007.22;5396057;32;33972;-72
2022/07/19 05:24:06;;;;;;;;;;;;;;;28.17;25.69;101001.12;5421087;32;44852;-74
2022/07/19 05:27:08;;;;;;;;;;;;;;;28.69;24.90;101025.44;5413714;32;35248;-73
2022/07/19 05:30:11;;;;;;;;;;;;;;;28.57;24.98;101015.91;5429972;32;35346;-72
2022/07/19 05:33:15;;;;;;;;;;;;;;;28.62;24.89;101016.28;5425928;32;34721;-69
2022/07/19 05:36:17;;;;;;;;;;;;;;;28.33;25.44;101008.50;5428239;32;34805;-70
2022/07/19 05:39:19;;;;;;;;;;;;;;;29.35;23.90;101012.97;5412176;32;34540;-66
2022/07/19 05:42:21;;;;;;;;;;;;;;;27.51;26.04;101013.25;5423448;32;35807;-73
2022/07/19 05:45:22;;;;;;;;;;;;;;;26.90;27.37;101019.31;5429016;32;34330;-69
2022/07/19 05:48:24;;;;;;;;;;;;;;;26.89;27.19;101016.78;5399369;32;35901;-74
2022/07/19 05:51:26;;;;;;;;;;;;;;;28.22;25.27;101006.91;5426008;32;34186;-68
2022/07/19 05:54:28;;;;;;;;;;;;;;;29.79;23.13;101013.56;5414978;32;35341;-77
2022/07/19 05:57:30;;;;;;;;;;;;;;;29.77;23.15;101017.47;5432897;32;34309;-76
2022/07/19 06:00:32;;;;;;;;;;;;;;;27.97;25.87;101011.31;5390270;32;34268;-66
2022/07/19 06:03:34;;;;;;;;;;;;;;;28.88;24.49;101005.41;5398772;32;35605;-70
2022/07/19 06:06:37;;;;;;;;;;;;;;;29.24;24.09;101013.28;5421763;32;46406;-73
2022/07/19 06:09:39;;;;;;;;;;;;;;;27.99;25.78;101014.69;5395628;32;35419;-79
2022/07/19 06:12:41;;;;;;;;;;;;;;;28.48;24.34;101011.50;5429341;32;35562;-75
2022/07/19 06:15:43;;;;;;;;;;;;;;;28.60;24.13;101011.03;5414456;32;34317;-69
2022/07/19 06:18:46;;;;;;;;;;;;;;;30.32;22.12;101012.16;5412002;32;34253;-71
2022/07/19 06:21:48;;;;;;;;;;;;;;;30.08;22.42;101013.03;5418768;32;34161;-71
2022/07/19 06:24:53;;;;;;;;;;;;;;;31.12;21.19;101011.19;5419059;32;35638;-75
2022/07/19 06:27:55;;;;;;;;;;;;;;;30.04;21.59;101017.09;5423940;32;36804;-70
2022/07/19 06:30:57;;;;;;;;;;;;;;;29.29;22.49;101021.78;5418345;32;34334;-77
2022/07/19 06:33:59;;;;;;;;;;;;;;;31.15;20.56;101011.66;5435907;32;34593;-72
2022/07/19 06:37:01;;;;;;;;;;;;;;;30.96;20.92;101014.81;5414988;32;34336;-73
2022/07/19 06:40:06;;;;;;;;;;;;;;;30.52;21.41;101017.19;5411757;32;34504;-68
2022/07/19 06:43:08;;;;;;;;;;;;;;;32.02;19.79;101014.94;5417122;32;34783;-70
2022/07/19 06:46:10;;;;;;;;;;;;;;;32.37;19.47;101012.56;5410261;32;35620;-69
2022/07/19 06:49:12;;;;;;;;;;;;;;;31.06;20.76;101010.03;5410588;32;35515;-67
2022/07/19 06:52:14;;;;;;;;;;;;;;;31.38;20.58;101009.00;5413186;32;34539;-71
2022/07/19 06:55:16;;;;;;;;;;;;;;;31.72;20.25;101005.84;5423798;32;34188;-66
2022/07/19 06:58:18;;;;;;;;;;;;;;;33.04;18.83;100998.81;5393012;32;37099;-71
2022/07/19 07:01:20;;;;;;;;;;;;;;;33.82;17.99;100988.91;5406760;32;32850;-68
2022/07/19 07:04:22;;;;;;;;;;;;;;;31.02;21.22;100998.66;5407753;32;34421;-67
2022/07/19 07:07:39;;;;;;;;;;;;;;;31.93;19.98;100999.72;5405386;32;44225;-64
2022/07/19 07:10:41;;;;;;;;;;;;;;;33.32;18.45;100992.63;5410333;32;34247;-69
2022/07/19 07:13:43;;;;;;;;;;;;;;;34.57;16.88;100989.22;5417744;32;34319;-69
2022/07/19 07:16:45;;;;;;;;;;;;;;;35.22;15.71;100990.53;5400868;32;35054;-66
2022/07/19 07:19:47;;;;;;;;;;;;;;;35.03;15.87;100975.78;5399443;32;34256;-74
2022/07/19 07:22:52;;;;;;;;;;;;;;;35.05;16.05;100983.78;5415009;32;34471;-66
2022/07/19 07:25:54;;;;;;;;;;;;;;;33.49;17.71;100996.81;5420688;32;35094;-71
2022/07/19 07:28:57;;;;;;;;;;;;;;;32.73;18.59;100996.31;5388297;32;938180;-72
2022/07/19 07:31:59;;;;;;;;;;;;;;;32.84;18.25;100974.03;5439267;32;34325;-77
2022/07/19 07:35:01;;;;;;;;;;;;;;;35.32;15.68;100965.56;5431755;32;35397;-83
2022/07/19 07:38:03;;;;;;;;;;;;;;;36.54;14.64;100962.31;5422138;32;34099;-68
2022/07/19 07:41:06;;;;;;;;;;;;;;;35.21;15.93;100967.00;5414389;32;45078;-77
2022/07/19 07:44:28;;;;;;;;;;;;;;;33.65;17.12;100979.34;5412800;32;34458;-72
2022/07/19 07:47:29;;;;;;;;;;;;;;;34.67;16.30;100974.16;5414804;32;34174;-73
2022/07/19 07:50:31;;;;;;;;;;;;;;;37.34;13.75;100969.06;5399626;32;35119;-72
2022/07/19 07:53:33;;;;;;;;;;;;;;;35.24;15.89;100969.34;5435828;32;34219;-71
2022/07/19 07:56:36;;;;;;;;;;;;;;;34.65;15.79;100968.09;5413101;32;43543;-72
2022/07/19 07:59:38;;;;;;;;;;;;;;;34.65;15.68;100970.81;5381062;32;35887;-73
2022/07/19 08:02:41;;;;;;;;;;;;;;;36.24;14.22;100967.44;5403560;32;34722;-73
2022/07/19 08:05:48;;;;;;;;;;;;;;;34.62;15.83;100957.56;5407480;32;34431;-64
2022/07/19 08:08:50;;;;;;;;;;;;;;;36.49;13.96;100964.88;5428071;32;35287;-70
2022/07/19 08:11:52;;;;;;;;;;;;;;;35.28;15.35;100965.13;5424292;32;34277;-81
2022/07/19 08:14:54;;;;;;;;;;;;;;;35.92;14.61;100970.03;5456201;32;34242;-81
2022/07/19 08:17:56;;;;;;;;;;;;;;;35.56;14.69;100970.44;5430559;32;34467;-68
2022/07/19 08:20:58;;;;;;;;;;;;;;;36.38;14.51;100963.59;5428879;32;34708;-73
2022/07/19 08:24:00;;;;;;;;;;;;;;;35.24;15.23;100955.66;5418405;32;34296;-76
2022/07/19 08:27:02;;;;;;;;;;;;;;;35.91;14.51;100964.75;5415093;32;33964;-69
2022/07/19 08:30:05;;;;;;;;;;;;;;;37.05;13.31;100959.56;5416426;32;38022;-70
2022/07/19 08:33:10;;;;;;;;;;;;;;;35.26;14.73;100967.22;5413326;32;45478;-71
2022/07/19 08:36:12;;;;;;;;;;;;;;;39.01;11.87;100949.81;5425764;32;35761;-75
2022/07/19 08:39:14;;;;;;;;;;;;;;;38.30;12.34;100961.50;5412657;32;34197;-71
2022/07/19 08:42:18;;;;;;;;;;;;;;;38.73;11.79;100951.25;5428223;32;35427;-74
2022/07/19 08:45:20;;;;;;;;;;;;;;;37.92;11.85;100954.25;5419957;32;34270;-70
2022/07/19 08:48:22;;;;;;;;;;;;;;;40.02;10.67;100948.78;5402865;32;35416;-69
2022/07/19 08:51:24;;;;;;;;;;;;;;;39.00;11.38;100939.91;5415487;32;34284;-68
2022/07/19 08:54:27;;;;;;;;;;;;;;;41.28;9.39;100939.75;5395104;32;34014;-68
2022/07/19 09:00:56;;;;;;;;;;;;;;;40.59;9.99;100937.12;5397081;32;34783;-81
2022/07/19 09:04:04;;;;;;;;;;;;;;;36.87;12.55;100940.28;5419932;32;34248;-75
2022/07/19 09:07:06;;;;;;;;;;;;;;;39.03;11.04;100916.59;5435652;32;44708;-68
2022/07/19 09:10:16;;;;;;;;;;;;;;;37.48;12.29;100936.06;5416130;32;35345;-69
2022/07/19 09:13:18;;;;;;;;;;;;;;;38.41;11.53;100927.78;5433215;32;35501;-81
2022/07/19 09:16:20;;;;;;;;;;;;;;;39.80;10.40;100929.31;5419393;32;34309;-78
2022/07/19 09:19:23;;;;;;;;;;;;;;;38.64;11.46;100929.78;5419583;32;34231;-72
2022/07/19 09:22:26;;;;;;;;;;;;;;;37.47;12.22;100926.19;5416228;32;34204;-73
2022/07/19 09:25:32;;;;;;;;;;;;;;;37.49;12.19;100930.41;5410022;32;35257;-75
2022/07/19 09:28:35;;;;;;;;;;;;;;;37.12;12.48;100932.94;5432461;32;33173;-68
2022/07/19 09:31:40;;;;;;;;;;;;;;;36.72;12.65;100929.59;5412292;32;45012;-71
2022/07/19 09:34:42;;;;;;;;;;;;;;;37.58;12.13;100928.19;5406814;32;34807;-68
2022/07/19 09:37:44;;;;;;;;;;;;;;;38.53;11.56;100906.72;5414940;32;36184;-70
2022/07/19 09:40:47;;;;;;;;;;;;;;;38.85;11.48;100912.03;5424400;32;35383;-69
2022/07/19 09:43:52;;;;;;;;;;;;;;;39.76;10.73;100913.53;5421682;32;35134;-73
2022/07/19 09:46:57;;;;;;;;;;;;;;;40.28;10.54;100908.91;5424074;32;35270;-72
2022/07/19 09:49:59;;;;;;;;;;;;;;;41.11;10.22;100907.53;5427467;32;34815;-73
2022/07/19 09:53:03;;;;;;;;;;;;;;;41.38;9.75;100899.44;5402737;32;35362;-73
2022/07/19 09:56:05;;;;;;;;;;;;;;;37.48;12.47;100894.94;5429946;32;35662;-81
2022/07/19 09:59:07;;;;;;;;;;;;;;;38.74;11.74;100898.00;5373530;32;44679;-84
2022/07/19 10:02:10;;;;;;;;;;;;;;;37.70;12.60;100903.62;5404646;32;34457;-81
2022/07/19 10:05:12;;;;;;;;;;;;;;;38.37;11.81;100904.59;5413226;32;35850;-82
2022/07/19 10:08:14;;;;;;;;;;;;;;;39.70;11.01;100890.56;5403283;32;36133;-79
2022/07/19 10:11:17;;;;;;;;;;;;;;;39.72;10.97;100902.16;5415506;32;34243;-68
2022/07/19 10:14:20;;;;;;;;;;;;;;;38.89;11.37;100896.72;5375751;32;34144;-70
2022/07/19 10:17:41;;;;;;;;;;;;;;;38.93;11.42;100893.28;5416708;32;34258;-75
2022/07/19 10:20:43;;;;;;;;;;;;;;;37.83;12.26;100901.59;5424144;32;44292;-72
2022/07/19 10:23:52;;;;;;;;;;;;;;;41.56;9.72;100884.56;5403164;32;34223;-67
2022/07/19 10:26:55;;;;;;;;;;;;;;;39.55;11.17;100887.44;5436460;32;34743;-70
2022/07/19 10:29:57;;;;;;;;;;;;;;;40.11;10.61;100885.97;5420736;32;34441;-76
2022/07/19 10:32:59;;;;;;;;;;;;;;;42.53;9.19;100873.97;5439194;32;35652;-75
2022/07/19 10:36:20;;;;;;;;;;;;;;;41.48;9.89;100873.97;5414176;32;34404;-73
2022/07/19 10:39:24;;;;;;;;;;;;;;;40.50;10.43;100876.06;5425273;32;34643;-72
2022/07/19 10:42:26;;;;;;;;;;;;;;;42.51;9.37;100870.59;5424868;32;36416;-70
2022/07/19 10:45:28;;;;;;;;;;;;;;;42.98;8.96;100866.19;5415699;32;35505;-72
2022/07/19 10:48:36;;;;;;;;;;;;;;;43.21;8.60;100864.13;5436793;32;34435;-74
2022/07/19 10:51:39;;;;;;;;;;;;;;;41.47;9.75;100868.66;5410408;32;45230;-73
2022/07/19 10:54:41;;;;;;;;;;;;;;;42.18;9.51;100866.94;5404460;32;34745;-79
2022/07/19 10:57:53;;;;;;;;;;;;;;;43.88;8.35;100862.69;5403914;32;34127;-72
2022/07/19 11:01:01;;;;;;;;;;;;;;;42.61;8.91;100849.50;5386122;32;34677;-71
2022/07/19 11:04:22;;;;;;;;;;;;;;;43.97;8.18;100861.88;5424758;32;35904;-72
2022/07/19 11:07:25;;;;;;;;;;;;;;;42.58;9.14;100855.56;5398568;32;35884;-72
2022/07/19 11:10:27;;;;;;;;;;;;;;;41.35;10.01;100852.22;5425864;32;34157;-68
2022/07/19 11:13:29;;;;;;;;;;;;;;;42.01;9.54;100849.59;5416419;32;33635;-71
2022/07/19 11:16:31;;;;;;;;;;;;;;;40.63;10.37;100841.03;5412447;32;35329;-69
2022/07/19 11:19:34;;;;;;;;;;;;;;;42.29;9.50;100843.87;5430830;32;35294;-71
2022/07/19 11:22:37;;;;;;;;;;;;;;;40.48;10.52;100841.59;5418683;32;43388;-74
2022/07/19 11:25:39;;;;;;;;;;;;;;;43.43;8.58;100831.69;5413215;32;35852;-78
2022/07/19 11:28:42;;;;;;;;;;;;;;;41.82;9.60;100832.50;5414714;32;35582;-66
2022/07/19 11:31:45;;;;;;;;;;;;;;;39.84;10.89;100830.59;5414640;32;36843;-67
2022/07/19 11:34:54;;;;;;;;;;;;;;;43.77;8.45;100823.84;5407164;32;35434;-66
2022/07/19 11:37:57;;;;;;;;;;;;;;;43.76;8.26;100824.09;5417086;32;34120;-68
2022/07/19 11:40:59;;;;;;;;;;;;;;;44.28;8.17;100806.63;5421622;32;34191;-66
2022/07/19 11:44:02;;;;;;;;;;;;;;;42.46;9.15;100805.12;5417829;32;35348;-68
2022/07/19 11:47:04;;;;;;;;;;;;;;;44.73;7.89;100805.03;5427384;32;34468;-72
2022/07/19 11:50:07;;;;;;;;;;;;;;;45.53;7.45;100799.69;5410059;32;44411;-68
2022/07/19 11:53:09;;;;;;;;;;;;;;;46.56;6.71;100790.56;5427225;32;34065;-73
2022/07/19 11:56:21;;;;;;;;;;;;;;;47.09;6.34;100784.28;5409459;32;35723;-79
2022/07/19 11:59:23;;;;;;;;;;;;;;;46.38;6.86;100789.31;5401518;32;34139;-74
2022/07/19 12:02:24;;;;;;;;;;;;;;;47.34;6.18;100788.75;5396072;32;35963;-68
2022/07/19 12:05:27;;;;;;;;;;;;;;;46.76;6.61;100784.00;5400161;32;34148;-70
2022/07/19 12:08:32;;;;;;;;;;;;;;;45.53;7.13;100794.13;5427298;32;34259;-74
2022/07/19 12:11:39;;;;;;;;;;;;;;;43.96;8.39;100787.38;5415946;32;34074;-74
2022/07/19 12:14:41;;;;;;;;;;;;;;;43.64;8.34;100774.50;5378271;32;44635;-73
2022/07/19 12:17:54;;;;;;;;;;;;;;;42.01;9.37;100780.56;5402664;32;36172;-70
2022/07/19 12:21:25;;;;;;;;;;;;;;;38.93;11.55;100782.53;5405539;32;36911;-72
2022/07/19 12:24:29;;;;;;;;;;;;;;;37.53;12.80;100777.22;5415936;32;35879;-80
2022/07/19 12:27:33;;;;;;;;;;;;;;;37.03;13.50;100777.28;5418610;32;33735;-71
2022/07/19 12:30:37;;;;;;;;;;;;;;;37.46;13.13;100763.59;5397455;32;44868;-77
2022/07/19 12:33:40;;;;;;;;;;;;;;;36.42;14.11;100770.56;5399967;32;34401;-79
2022/07/19 12:36:42;;;;;;;;;;;;;;;37.93;12.58;100772.97;5413576;32;34693;-78
2022/07/19 12:39:55;;;;;;;;;;;;;;;36.22;14.10;100783.50;5432324;32;36675;-72
2022/07/19 12:43:02;;;;;;;;;;;;;;;36.95;13.61;100778.41;5416265;32;35736;-73
2022/07/19 12:46:04;;;;;;;;;;;;;;;36.54;14.03;100771.53;5435010;32;32888;-79
2022/07/19 12:49:06;;;;;;;;;;;;;;;35.80;14.46;100769.31;5417308;32;44313;-78
2022/07/19 12:52:08;;;;;;;;;;;;;;;35.91;14.42;100770.59;5407857;32;34054;-71
2022/07/19 12:55:10;;;;;;;;;;;;;;;35.48;14.82;100766.47;5434583;32;34345;-81
2022/07/19 13:01:40;;;;;;;;;;;;;;;36.57;13.80;100756.53;5415904;32;44750;-75
2022/07/19 13:04:43;;;;;;;;;;;;;;;36.89;13.51;100765.59;5399441;32;34295;-74
2022/07/19 13:07:45;;;;;;;;;;;;;;;34.55;15.84;100757.47;5419859;32;35828;-74
2022/07/19 13:10:47;;;;;;;;;;;;;;;35.86;14.80;100751.22;5413937;32;34323;-75
2022/07/19 13:13:49;;;;;;;;;;;;;;;35.67;14.68;100748.34;5402634;32;34491;-68
2022/07/19 13:16:51;;;;;;;;;;;;;;;35.93;14.31;100746.59;5433258;32;34419;-85
2022/07/19 13:19:53;;;;;;;;;;;;;;;35.22;14.91;100742.75;5404850;32;34499;-69
2022/07/19 13:22:55;;;;;;;;;;;;;;;35.01;15.16;100746.56;5433170;32;35746;-70
2022/07/19 13:25:57;;;;;;;;;;;;;;;34.94;15.28;100743.00;5414410;32;34318;-71
2022/07/19 13:28:59;;;;;;;;;;;;;;;34.91;15.23;100737.97;5424811;32;34684;-74
2022/07/19 13:32:01;;;;;;;;;;;;;;;35.68;14.60;100728.19;5433887;32;35711;-71
2022/07/19 13:35:04;;;;;;;;;;;;;;;34.69;15.73;100734.56;5394197;32;35575;-73
2022/07/19 13:38:06;;;;;;;;;;;;;;;34.72;15.62;100727.88;5433582;32;43647;-81
2022/07/19 13:41:08;;;;;;;;;;;;;;;35.17;15.22;100725.34;5420505;32;34282;-69
2022/07/19 13:44:10;;;;;;;;;;;;;;;35.06;15.37;100718.63;5417855;32;34190;-69
2022/07/19 13:47:12;;;;;;;;;;;;;;;34.70;15.55;100713.56;5405757;32;34391;-72
2022/07/19 13:50:14;;;;;;;;;;;;;;;34.83;15.66;100712.72;5423285;32;34248;-79
2022/07/19 13:53:16;;;;;;;;;;;;;;;35.47;14.92;100707.41;5429588;32;36991;-66
2022/07/19 13:56:18;;;;;;;;;;;;;;;35.66;14.69;100710.28;5418823;32;34225;-82
2022/07/19 13:59:20;;;;;;;;;;;;;;;36.31;14.13;100705.53;5414676;32;34117;-76
2022/07/19 14:02:22;;;;;;;;;;;;;;;35.56;14.71;100701.72;5410211;32;34297;-79
2022/07/19 14:05:24;;;;;;;;;;;;;;;34.62;15.67;100701.00;5436320;32;34296;-78
2022/07/19 14:08:27;;;;;;;;;;;;;;;34.84;15.79;100698.88;5408629;32;35752;-69
2022/07/19 14:11:29;;;;;;;;;;;;;;;35.03;15.51;100696.34;5416315;32;34359;-80
2022/07/19 14:14:31;;;;;;;;;;;;;;;34.22;15.98;100681.00;5426229;32;35375;-76
2022/07/19 14:17:33;;;;;;;;;;;;;;;35.07;15.37;100693.00;5414564;32;34880;-76
2022/07/19 14:20:35;;;;;;;;;;;;;;;35.26;15.09;100685.81;5414936;32;35392;-81
2022/07/19 14:23:37;;;;;;;;;;;;;;;35.70;14.74;100681.47;5414982;32;44618;-70
2022/07/19 14:26:39;;;;;;;;;;;;;;;35.96;14.47;100675.06;5418943;32;35753;-80
2022/07/19 14:29:41;;;;;;;;;;;;;;;35.77;14.63;100671.34;5417067;32;34291;-68
2022/07/19 14:32:43;;;;;;;;;;;;;;;35.40;15.06;100676.50;5412922;32;34604;-67
2022/07/19 14:35:45;;;;;;;;;;;;;;;35.56;14.91;100675.22;5423991;32;36748;-79
2022/07/19 14:38:47;;;;;;;;;;;;;;;35.43;14.92;100665.19;5398940;32;34751;-68
2022/07/19 14:41:49;;;;;;;;;;;;;;;35.57;14.85;100671.44;5434751;32;34659;-69
2022/07/19 14:44:52;;;;;;;;;;;;;;;35.80;14.76;100670.87;5420399;32;35062;-78
2022/07/19 14:47:54;;;;;;;;;;;;;;;34.50;15.87;100669.91;5423152;32;35273;-80
2022/07/19 14:50:56;;;;;;;;;;;;;;;35.34;15.29;100665.59;5413077;32;34863;-79
2022/07/19 14:54:01;;;;;;;;;;;;;;;35.07;15.48;100654.75;5405547;32;35070;-76
2022/07/19 14:57:13;;;;;;;;;;;;;;;35.22;15.25;100654.50;5416386;32;45072;-73
2022/07/19 15:00:15;;;;;;;;;;;;;;;35.70;14.83;100659.59;5378739;32;35068;-76
2022/07/19 15:03:17;;;;;;;;;;;;;;;35.91;14.81;100661.19;5415186;32;34403;-68
2022/07/19 15:06:19;;;;;;;;;;;;;;;35.35;15.32;100653.63;5396578;32;34332;-78
2022/07/19 15:09:21;;;;;;;;;;;;;;;36.23;14.37;100654.66;5407094;32;35377;-79
2022/07/19 15:12:23;;;;;;;;;;;;;;;35.17;15.25;100643.41;5435343;32;34727;-79
2022/07/19 15:15:25;;;;;;;;;;;;;;;35.35;15.36;100640.78;5422697;32;34408;-79
2022/07/19 15:18:27;;;;;;;;;;;;;;;35.78;14.77;100634.75;5445323;32;34827;-67
2022/07/19 15:21:29;;;;;;;;;;;;;;;35.63;14.93;100645.12;5410569;32;34493;-67
2022/07/19 15:24:31;;;;;;;;;;;;;;;35.34;15.23;100638.28;5441024;32;35629;-67
2022/07/19 15:27:33;;;;;;;;;;;;;;;35.52;15.09;100638.44;5386891;32;35803;-77
2022/07/19 15:30:35;;;;;;;;;;;;;;;35.36;14.97;100641.63;5409139;32;35396;-77
2022/07/19 15:33:37;;;;;;;;;;;;;;;35.80;14.71;100632.63;5422352;32;47036;-67
2022/07/19 15:36:39;;;;;;;;;;;;;;;34.69;15.62;100630.00;5386636;32;34295;-80
2022/07/19 15:39:41;;;;;;;;;;;;;;;34.93;15.49;100621.19;5437103;32;34933;-73
2022/07/19 15:42:47;;;;;;;;;;;;;;;34.92;15.58;100622.25;5393466;32;34679;-77
2022/07/19 15:45:49;;;;;;;;;;;;;;;34.64;16.08;100617.00;5427323;32;34611;-77
2022/07/19 15:48:51;;;;;;;;;;;;;;;34.34;16.13;100619.31;5426476;32;34143;-67